Time;durP1;ratioP1;P1;durP2;ratioP2;P2;SDS_P1;SDS_P2;PMS_P1;PMS_P2;Temp;Humidity;BMP_temperature;BMP_pressure;BME280_temperature;BME280_humidity;BME280_pressure;Samples;Min_cycle;Max_cycle;Signal;HPM_P1;HPM_P2
2024/01/05 00:02:32;;;;;;;23.97;8.00;;;7.80;99.90;;;;;;20863686;28;20048;-43
2024/01/05 00:12:33;;;;;;;18.33;7.65;;;7.90;99.90;;;;;;20877482;28;20459;-40
2024/01/05 00:22:34;;;;;;;26.63;8.25;;;7.90;99.90;;;;;;20879047;28;20056;-40
2024/01/05 00:32:34;;;;;;;21.00;7.80;;;8.10;99.90;;;;;;20879919;28;20033;-41
2024/01/05 00:42:35;;;;;;;19.42;7.80;;;8.10;99.90;;;;;;20873390;28;20607;-40
2024/01/05 00:52:36;;;;;;;22.77;7.97;;;8.20;99.90;;;;;;20866784;28;20079;-40
2024/01/05 01:02:37;;;;;;;23.17;6.88;;;8.20;99.90;;;;;;20866427;28;20052;-40
2024/01/05 01:12:37;;;;;;;24.65;7.07;;;8.20;99.90;;;;;;20866990;28;20595;-40
2024/01/05 01:22:38;;;;;;;17.05;6.50;;;8.30;99.90;;;;;;20857015;28;20048;-40
2024/01/05 01:32:38;;;;;;;19.73;6.30;;;8.30;99.90;;;;;;20860956;28;20044;-42
2024/01/05 01:42:44;;;;;;;14.98;5.43;;;8.30;99.90;;;;;;20861260;28;20455;-40
2024/01/05 01:52:46;;;;;;;16.02;4.50;;;8.30;99.90;;;;;;20859046;28;20449;-40
2024/01/05 02:02:47;;;;;;;16.50;5.00;;;8.30;99.90;;;;;;20858747;28;20386;-40
2024/01/05 02:12:48;;;;;;;19.15;5.75;;;8.30;99.90;;;;;;20855324;28;20455;-40
2024/01/05 02:22:56;;;;;;;16.93;4.63;;;8.30;99.90;;;;;;20856421;28;20114;-40
2024/01/05 02:32:56;;;;;;;16.58;4.35;;;8.30;99.90;;;;;;20862320;28;20742;-40
2024/01/05 02:42:57;;;;;;;13.90;4.93;;;8.40;99.90;;;;;;20862270;28;20056;-41
2024/01/05 02:52:58;;;;;;;15.32;4.10;;;8.50;99.90;;;;;;20865445;28;20078;-40
2024/01/05 03:02:58;;;;;;;10.02;3.60;;;8.40;99.90;;;;;;20858606;28;20567;-40
2024/01/05 03:12:59;;;;;;;14.13;3.63;;;8.50;99.90;;;;;;20858609;28;20143;-40
2024/01/05 03:22:59;;;;;;;14.02;2.53;;;8.50;99.90;;;;;;20854357;28;20040;-40
2024/01/05 03:33:00;;;;;;;10.38;1.80;;;8.70;99.90;;;;;;20863015;28;20045;-40
2024/01/05 03:43:00;;;;;;;9.60;2.30;;;8.80;99.90;;;;;;20879966;28;20424;-40
2024/01/05 03:53:01;;;;;;;13.88;2.85;;;8.90;99.90;;;;;;20878103;28;20037;-40
2024/01/05 04:03:02;;;;;;;8.82;1.80;;;9.10;99.90;;;;;;20876310;28;20067;-40
2024/01/05 04:13:03;;;;;;;6.90;1.80;;;9.10;99.90;;;;;;20873659;28;20048;-40
2024/01/05 04:23:03;;;;;;;14.63;2.45;;;9.00;99.90;;;;;;20871998;28;20469;-40
2024/01/05 04:33:04;;;;;;;5.38;1.50;;;9.00;99.90;;;;;;20866289;28;20091;-40
2024/01/05 04:43:04;;;;;;;9.55;1.92;;;9.00;99.90;;;;;;20869053;28;20056;-40
2024/01/05 04:53:05;;;;;;;6.82;1.67;;;9.10;99.90;;;;;;20873671;28;20064;-40
2024/01/05 05:03:06;;;;;;;14.20;1.80;;;9.10;99.90;;;;;;20871385;28;20516;-40
2024/01/05 05:13:06;;;;;;;9.95;1.40;;;9.10;99.90;;;;;;20850353;28;20452;-40
2024/01/05 05:23:07;;;;;;;11.32;1.67;;;9.10;99.90;;;;;;20867904;28;20045;-40
2024/01/05 05:33:08;;;;;;;4.75;1.35;;;9.10;99.90;;;;;;20866109;28;20040;-40
2024/01/05 05:43:08;;;;;;;6.10;1.65;;;9.10;99.90;;;;;;20848067;28;20053;-40
2024/01/05 05:53:10;;;;;;;8.07;1.60;;;9.10;99.90;;;;;;20867265;28;20045;-40
2024/01/05 06:03:10;;;;;;;7.40;2.40;;;9.20;96.20;;;;;;20849200;28;20040;-39
2024/01/05 06:13:11;;;;;;;7.45;1.30;;;9.10;91.50;;;;;;20862944;28;20044;-40
2024/01/05 06:23:12;;;;;;;7.72;1.30;;;8.90;99.90;;;;;;20865902;28;20531;-39
2024/01/05 06:33:12;;;;;;;4.00;0.88;;;8.80;99.90;;;;;;20861895;28;20041;-40
2024/01/05 06:43:13;;;;;;;5.15;0.40;;;8.50;99.90;;;;;;20860730;28;20152;-40
2024/01/05 06:53:13;;;;;;;1.30;0.38;;;8.20;98.90;;;;;;20863496;28;20049;-40
2024/01/05 07:03:14;;;;;;;2.88;0.50;;;7.90;99.90;;;;;;20860030;28;20079;-40
2024/01/05 07:13:15;;;;;;;2.50;0.70;;;7.90;99.90;;;;;;20867101;28;20090;-40
2024/01/05 07:23:15;;;;;;;1.10;0.30;;;8.00;87.60;;;;;;20867610;28;20083;-41
2024/01/05 07:33:16;;;;;;;0.75;0.30;;;7.80;79.80;;;;;;20861470;28;20041;-43
2024/01/05 07:43:16;;;;;;;1.73;0.47;;;7.60;71.70;;;;;;20857333;28;20421;-40
2024/01/05 07:53:17;;;;;;;1.95;0.40;;;7.50;85.10;;;;;;20864286;28;20037;-41
2024/01/05 08:03:18;;;;;;;2.53;0.50;;;7.50;87.40;;;;;;20861899;28;20057;-41
2024/01/05 08:13:23;;;;;;;2.72;0.60;;;7.50;94.40;;;;;;20858812;28;21394;-40
2024/01/05 08:23:23;;;;;;;1.60;0.45;;;7.40;99.90;;;;;;20859488;28;20061;-41
2024/01/05 08:33:24;;;;;;;2.75;0.70;;;7.30;99.90;;;;;;20732642;28;20509;-40
2024/01/05 08:43:25;;;;;;;1.88;1.00;;;7.20;99.90;;;;;;20675602;28;20068;-41
2024/01/05 08:53:26;;;;;;;2.00;1.10;;;7.20;99.90;;;;;;20667507;28;20030;-42
2024/01/05 09:03:27;;;;;;;3.03;1.67;;;7.10;99.90;;;;;;20637058;28;20053;-42
2024/01/05 09:13:30;;;;;;;3.90;2.15;;;7.10;99.90;;;;;;20671885;28;20457;-42
2024/01/05 09:23:31;;;;;;;4.90;2.55;;;7.10;99.90;;;;;;20645589;28;20131;-41
2024/01/05 09:33:31;;;;;;;5.50;2.97;;;6.90;99.90;;;;;;20657236;28;20049;-42
2024/01/05 09:43:32;;;;;;;5.03;3.22;;;7.00;99.90;;;;;;20660238;28;20469;-41
2024/01/05 09:53:32;;;;;;;6.27;3.97;;;6.90;99.90;;;;;;20660770;28;20051;-42
2024/01/05 10:03:33;;;;;;;6.25;3.95;;;6.90;99.90;;;;;;20659128;28;20892;-41
2024/01/05 10:13:35;;;;;;;6.00;3.95;;;6.80;99.90;;;;;;20652041;28;20764;-41
2024/01/05 10:23:43;;;;;;;5.90;4.03;;;6.80;99.90;;;;;;20654003;28;20057;-41
2024/01/05 10:33:55;;;;;;;8.00;4.53;;;6.90;99.90;;;;;;20654210;28;20050;-41
2024/01/05 10:43:58;;;;;;;7.10;5.03;;;6.90;99.90;;;;;;20660304;28;20128;-41
2024/01/05 10:53:59;;;;;;;7.15;5.18;;;6.90;99.90;;;;;;20656078;28;20099;-40
2024/01/05 11:04:03;;;;;;;8.38;5.85;;;7.10;99.90;;;;;;20665670;28;20054;-41
2024/01/05 11:14:35;;;;;;;7.75;5.78;;;7.10;99.90;;;;;;20633706;28;20048;-41
2024/01/05 11:24:38;;;;;;;8.10;6.22;;;7.10;99.90;;;;;;20660406;28;20129;-40
2024/01/05 11:34:40;;;;;;;7.22;4.72;;;7.10;99.90;;;;;;20676080;28;20052;-40
2024/01/05 11:44:41;;;;;;;6.63;4.28;;;7.20;99.90;;;;;;20673203;28;20057;-41
2024/01/05 11:54:42;;;;;;;6.82;4.97;;;7.10;99.90;;;;;;20664142;28;20064;-40
2024/01/05 12:04:46;;;;;;;6.93;4.85;;;7.20;99.90;;;;;;20670142;28;20046;-41
2024/01/05 12:14:47;;;;;;;7.78;4.93;;;7.10;99.90;;;;;;20678279;28;20058;-42
2024/01/05 12:24:47;;;;;;;7.83;5.87;;;7.20;99.90;;;;;;20676664;28;20358;-42
2024/01/05 12:34:48;;;;;;;9.93;7.50;;;7.30;99.90;;;;;;20677382;28;20524;-41
2024/01/05 12:44:49;;;;;;;12.80;8.65;;;7.50;99.90;;;;;;20676730;28;20128;-40
2024/01/05 12:54:49;;;;;;;12.30;8.50;;;7.80;99.90;;;;;;20676920;28;20072;-40
2024/01/05 13:04:50;;;;;;;10.47;6.53;;;7.90;99.90;;;;;;20677717;28;20045;-40
2024/01/05 13:14:51;;;;;;;9.25;6.35;;;8.10;99.90;;;;;;20682566;28;20485;-41
2024/01/05 13:24:52;;;;;;;13.23;7.45;;;8.30;99.90;;;;;;20659201;28;20188;-41
2024/01/05 13:34:52;;;;;;;11.40;7.78;;;8.20;99.90;;;;;;20673330;28;20086;-40
2024/01/05 13:44:53;;;;;;;11.80;7.30;;;8.10;99.90;;;;;;20661314;28;20678;-40
2024/01/05 13:54:54;;;;;;;12.70;8.57;;;7.80;99.90;;;;;;20636380;28;20330;-41
2024/01/05 14:04:54;;;;;;;13.30;9.20;;;7.70;99.90;;;;;;20652796;28;20049;-41
2024/01/05 14:14:55;;;;;;;14.93;9.40;;;7.60;99.90;;;;;;20653389;28;20859;-41
2024/01/05 14:24:55;;;;;;;12.75;7.95;;;7.60;99.90;;;;;;20649882;28;20073;-40
2024/01/05 14:34:56;;;;;;;11.88;6.82;;;7.60;99.90;;;;;;20658180;28;20041;-40
2024/01/05 14:44:57;;;;;;;8.43;5.55;;;7.70;99.90;;;;;;20660055;28;20057;-40
2024/01/05 14:54:59;;;;;;;7.50;4.53;;;7.60;99.90;;;;;;20659575;28;20065;-40
2024/01/05 15:04:59;;;;;;;7.30;4.40;;;7.60;99.90;;;;;;20667704;28;20054;-40
2024/01/05 15:15:00;;;;;;;7.18;4.25;;;7.50;99.90;;;;;;20668558;28;20506;-41
2024/01/05 15:25:01;;;;;;;5.20;3.53;;;7.40;99.90;;;;;;20670331;28;20045;-41
2024/01/05 15:35:01;;;;;;;5.78;3.65;;;7.40;99.90;;;;;;20668992;28;20049;-41
2024/01/05 15:45:02;;;;;;;4.95;3.33;;;7.40;99.90;;;;;;20657025;28;20080;-41
2024/01/05 15:55:03;;;;;;;6.82;4.03;;;7.20;99.90;;;;;;20656364;28;20120;-41
2024/01/05 16:05:04;;;;;;;6.50;3.92;;;7.20;99.90;;;;;;20657418;28;20079;-41
2024/01/05 16:15:09;;;;;;;9.38;5.53;;;7.20;99.90;;;;;;20635904;28;20791;-41
2024/01/05 16:25:10;;;;;;;9.25;5.00;;;7.20;99.90;;;;;;20639910;28;20336;-41
2024/01/05 16:35:10;;;;;;;7.72;4.53;;;7.20;99.90;;;;;;20642446;28;20045;-40
2024/01/05 16:45:12;;;;;;;8.88;5.32;;;7.20;99.90;;;;;;20652531;28;20076;-40
2024/01/05 16:55:13;;;;;;;10.60;6.07;;;7.10;99.90;;;;;;20667662;28;20034;-41
2024/01/05 17:05:14;;;;;;;8.73;5.50;;;7.20;99.90;;;;;;20667532;28;20041;-40
2024/01/05 17:15:15;;;;;;;9.07;6.30;;;7.10;99.90;;;;;;20669687;28;20077;-40
2024/01/05 17:25:15;;;;;;;10.30;6.43;;;7.20;99.90;;;;;;20667190;28;20046;-41
2024/01/05 17:35:16;;;;;;;16.60;7.50;;;7.20;99.90;;;;;;20660433;28;20046;-40
2024/01/05 17:45:16;;;;;;;12.02;7.28;;;7.30;99.90;;;;;;20653464;28;20167;-40
2024/01/05 17:55:17;;;;;;;9.35;6.05;;;7.30;99.90;;;;;;20643937;28;20045;-40
2024/01/05 18:05:18;;;;;;;9.82;6.03;;;7.30;99.90;;;;;;20646414;28;20100;-41
2024/01/05 18:15:18;;;;;;;11.35;6.93;;;7.30;99.90;;;;;;20656322;28;20034;-40
2024/01/05 18:25:19;;;;;;;10.05;6.90;;;7.30;99.90;;;;;;20647027;28;20050;-40
2024/01/05 18:35:20;;;;;;;9.48;6.45;;;7.30;99.90;;;;;;20643388;28;20598;-41
2024/01/05 18:45:20;;;;;;;12.77;8.25;;;7.30;99.90;;;;;;20647955;28;20096;-40
2024/01/05 18:55:21;;;;;;;15.23;8.98;;;7.20;99.90;;;;;;20653465;28;20026;-40
2024/01/05 19:05:21;;;;;;;19.65;11.55;;;7.20;99.90;;;;;;20652521;28;20510;-40
2024/01/05 19:15:23;;;;;;;17.70;9.32;;;7.20;99.90;;;;;;20654548;28;20045;-40
2024/01/05 19:25:24;;;;;;;18.27;10.20;;;7.30;99.90;;;;;;20659423;28;20137;-41
2024/01/05 19:35:24;;;;;;;15.63;8.30;;;7.20;99.90;;;;;;20656904;28;20049;-41
2024/01/05 19:45:25;;;;;;;11.93;6.85;;;7.20;99.90;;;;;;20646550;28;20046;-40
2024/01/05 19:55:26;;;;;;;18.88;9.30;;;7.20;99.90;;;;;;20655356;28;20045;-40
2024/01/05 20:05:26;;;;;;;13.93;8.07;;;7.20;99.90;;;;;;20656865;28;20406;-40
2024/01/05 20:15:27;;;;;;;19.67;10.43;;;7.10;99.90;;;;;;20654844;28;20050;-40
2024/01/05 20:25:28;;;;;;;19.35;10.70;;;7.10;99.90;;;;;;20670488;28;20042;-40
2024/01/05 20:35:28;;;;;;;22.20;11.63;;;7.10;99.90;;;;;;20661471;28;20058;-40
2024/01/05 20:45:29;;;;;;;17.63;10.07;;;7.30;99.90;;;;;;20661212;28;20568;-40
2024/01/05 20:55:29;;;;;;;20.27;10.25;;;7.20;99.90;;;;;;20660598;28;20532;-40
2024/01/05 21:05:31;;;;;;;24.63;12.88;;;7.00;99.90;;;;;;20663904;28;20069;-41
2024/01/05 21:15:32;;;;;;;24.17;12.82;;;7.00;99.90;;;;;;20668532;28;20112;-40
2024/01/05 21:25:32;;;;;;;22.50;11.32;;;7.00;99.90;;;;;;20666391;28;20033;-40
2024/01/05 21:35:33;;;;;;;24.30;11.23;;;6.70;99.90;;;;;;20668476;28;20054;-40
2024/01/05 21:45:34;;;;;;;25.60;11.73;;;6.60;99.90;;;;;;20660837;28;20058;-40
2024/01/05 21:55:36;;;;;;;24.25;13.35;;;6.50;99.90;;;;;;20657271;28;21134;-40
2024/01/05 22:05:37;;;;;;;23.67;11.90;;;6.40;99.90;;;;;;20649046;28;20516;-40
2024/01/05 22:15:39;;;;;;;22.23;11.18;;;6.40;99.90;;;;;;20653569;28;20458;-41
2024/01/05 22:25:40;;;;;;;21.80;11.15;;;6.40;99.90;;;;;;20650209;28;21838;-40
2024/01/05 22:35:40;;;;;;;21.55;9.85;;;6.50;99.90;;;;;;20620233;28;20482;-40
2024/01/05 22:45:41;;;;;;;17.27;8.68;;;6.50;99.90;;;;;;20659807;28;20060;-40
2024/01/05 22:55:42;;;;;;;20.15;9.77;;;6.30;99.90;;;;;;20649215;28;20363;-40
2024/01/05 23:05:42;;;;;;;18.35;9.60;;;6.30;99.90;;;;;;20666139;28;20038;-40
2024/01/05 23:15:43;;;;;;;18.97;10.17;;;6.30;99.90;;;;;;20673182;28;20034;-40
2024/01/05 23:25:43;;;;;;;16.40;10.10;;;6.30;99.90;;;;;;20674651;28;20448;-41
2024/01/05 23:35:44;;;;;;;14.55;8.30;;;6.20;99.90;;;;;;20666046;28;20049;-41
2024/01/05 23:45:45;;;;;;;17.63;8.50;;;6.10;99.90;;;;;;20670915;28;20542;-40
2024/01/05 23:55:45;;;;;;;15.55;8.57;;;6.00;99.90;;;;;;20685652;28;20096;-40
